Lyndonville, NY (14098)

6:25 PM EST on December 28, 2014 (GMT -0500)
Lakeshore - Cinnamon Lane | Change Station
CLOSE
Current Station
Personal Weather Station
Location: Lyndonville, NY
Elevation: 260 ft
Nearby Weather Stations

Elev 260 ft 43.37 °N, 78.35 °W | Updated 49 seconds ago

Overcast
Overcast
35.6 °F
Feels Like 36 °F
N
2.2
Wind Variable Wind from SW
Gusts 3.8 mph

Today
High -- | Low -- °F
--% Chance of Precip.
Yesterday
High -- | Low -- °F
Precip. -- in
7:45 AM 4:45 PM
First Quarter, 52% visible
Pressure 30.07 in
Visibility 10.0 miles
Clouds Mostly Cloudy 4300 ft
Mostly Cloudy 14000 ft
Mostly Cloudy 22000 ft
Windchill 36 °F
Dew Point 22 °F
Humidity 58%
Rainfall 0.24 in
Snow Depth Not available.
UV 0 out of 12
Pollen .10 out of 12
Air Quality Not available.
Flu Activity Not available.
METAR KBUF 282254Z 24010KT 10SM BKN043 BKN140 BKN220 02/M03 A3005 RMK AO2 SLP183 T00171033 $

More Conditions Fewer Conditions

Pressure 30.07 in
Visibility 10.0 miles
Clouds Mostly Cloudy 4300 ft
Mostly Cloudy 14000 ft
Mostly Cloudy 22000 ft
Windchill 36 °F
Dew Point 22 °F
Humidity 58%
Rainfall 0.24 in
Snow Depth Not available.
UV 0 out of 12
Pollen .10 out of 12
Air Quality Not available.
Flu Activity Not available.
METAR KBUF 282254Z 24010KT 10SM BKN043 BKN140 BKN220 02/M03 A3005 RMK AO2 SLP183 T00171033 $

More Conditions Fewer Conditions

10-Day Weather Forecast

Almanac

Astronomy

Dec. 28, 2014 Rise Set
Actual Time
Civil Twilight
Nautical Twilight
Astronomical Twilight
Moon
Length of Visible Light
Length of Day
Tomorrow will be .
, % of the Moon is Illuminated

Today's Extremes

State Highs State Lows

Community

WunderPhotos

Upload Photos

1,781,460 photos uploaded!

WunderBlogs® & News

Nearby

Air Quality

  Air Quality AQ Index Pollutant
Not available.

Snow Depth

Station Depth Elevation

Earthquake Activity

City Distance Mag. Time & Date
Minimum magnitude displayed is 2.5.

Coastal Water Temperatures

Place Temperature

Nearby Weather Stations